Stronghurst, Illinois
Current Conditions -  °F | °C
As of 9:21 AM on Thursday 18 Dec 2014 (Local Time) from KBRL Reporting Station
Unknown Precip Unknown Precip  
Wind Chill: 25°   Ceiling: 2400
Heat Index: 25°   Visibility: 9mi
Dew Point: 20°   Wind: 0mph
Humidity: 81%   Direction: NA
Pressure: 30.31"   Gusts: NA
Location:  40.75°N, 90.9°W
Report Text: KBRL 181521Z AUTO 00000KT 9SM UP BKN024 OVC100 M04/M07 A3031 RMK AO2 UPE01B20SNB01E20 P0000 T10391067
Loading
Personal Weather Stations






























Interactive Weather Map New forecast layout! Learn more

10-Day Weather Forecast

Advertisements
Track Severe Weather on mobile